Time;durP1;ratioP1;P1;durP2;ratioP2;P2;SDS_P1;SDS_P2;PMS_P1;PMS_P2;Temp;Humidity;BMP_temperature;BMP_pressure;BME280_temperature;BME280_humidity;BME280_pressure;Samples;Min_cycle;Max_cycle;Signal;HPM_P1;HPM_P2
2021/10/26 00:00:27;;;;;;;33.80;26.25;;;12.10;99.90;;;;;;4129462;28;20030;-78
2021/10/26 00:02:28;;;;;;;43.08;31.45;;;12.10;99.90;;;;;;4131822;28;20033;-78
2021/10/26 00:04:28;;;;;;;38.17;29.70;;;12.30;99.90;;;;;;4130126;28;20058;-78
2021/10/26 00:06:29;;;;;;;41.33;28.88;;;12.30;99.90;;;;;;4116516;28;20535;-79
2021/10/26 00:08:30;;;;;;;42.78;31.08;;;12.30;99.90;;;;;;4124996;28;20194;-79
2021/10/26 00:10:31;;;;;;;39.88;29.27;;;12.30;99.90;;;;;;4118676;28;20034;-79
2021/10/26 00:12:32;;;;;;;37.78;29.70;;;12.30;99.90;;;;;;4130298;28;20029;-79
2021/10/26 00:14:32;;;;;;;46.67;32.45;;;12.30;99.90;;;;;;4128115;28;20046;-78
2021/10/26 00:16:33;;;;;;;38.20;31.38;;;12.30;99.90;;;;;;4129907;28;20446;-78
2021/10/26 00:18:34;;;;;;;45.65;33.63;;;12.20;99.90;;;;;;4127648;28;20046;-78
2021/10/26 00:20:35;;;;;;;46.42;33.72;;;12.20;99.90;;;;;;4128371;28;20034;-78
2021/10/26 00:22:35;;;;;;;40.50;30.45;;;12.20;99.90;;;;;;4129437;28;20045;-78
2021/10/26 00:24:36;;;;;;;41.47;32.30;;;12.20;99.90;;;;;;4129575;28;20034;-78
2021/10/26 00:26:37;;;;;;;48.22;33.75;;;12.10;99.90;;;;;;4127204;28;20088;-78
2021/10/26 00:28:38;;;;;;;48.72;32.85;;;12.10;99.90;;;;;;4142942;28;20034;-79
2021/10/26 00:30:38;;;;;;;45.38;32.30;;;12.10;99.90;;;;;;4132749;28;20481;-78
2021/10/26 00:32:39;;;;;;;46.40;30.80;;;12.10;99.90;;;;;;4129554;28;20042;-78
2021/10/26 00:34:39;;;;;;;42.40;32.95;;;12.10;99.90;;;;;;4129428;28;20413;-78
2021/10/26 00:36:40;;;;;;;41.63;33.40;;;12.10;99.90;;;;;;4129084;28;20406;-78
2021/10/26 00:38:41;;;;;;;43.38;31.58;;;12.10;99.90;;;;;;4130039;28;20038;-78
2021/10/26 00:40:46;;;;;;;37.20;28.80;;;12.20;99.90;;;;;;4119225;28;20549;-77
2021/10/26 00:42:46;;;;;;;41.83;31.15;;;12.20;99.90;;;;;;4130374;28;20133;-78
2021/10/26 00:44:47;;;;;;;40.55;30.92;;;12.10;99.90;;;;;;4130494;28;20427;-78
2021/10/26 00:46:48;;;;;;;45.95;31.58;;;12.00;99.90;;;;;;4130347;28;20089;-78
2021/10/26 00:48:49;;;;;;;39.80;31.20;;;12.10;99.90;;;;;;4121985;28;20062;-78
2021/10/26 00:50:50;;;;;;;39.22;30.92;;;12.10;99.90;;;;;;4126755;28;20046;-78
2021/10/26 00:52:51;;;;;;;46.08;31.23;;;12.10;99.90;;;;;;4116931;28;20489;-78
2021/10/26 00:54:52;;;;;;;45.10;33.13;;;12.10;99.90;;;;;;4124370;28;20051;-78
2021/10/26 00:56:53;;;;;;;46.58;32.72;;;12.10;99.90;;;;;;4128491;28;20411;-78
2021/10/26 00:58:54;;;;;;;45.15;32.85;;;12.10;99.90;;;;;;4131451;28;20441;-78
2021/10/26 01:00:55;;;;;;;48.28;31.98;;;12.00;99.90;;;;;;4127487;28;20035;-79
2021/10/26 01:02:55;;;;;;;45.67;30.38;;;12.10;99.90;;;;;;4129746;28;20041;-77
2021/10/26 01:04:56;;;;;;;44.28;30.50;;;12.10;99.90;;;;;;4129421;28;20509;-78
2021/10/26 01:06:57;;;;;;;42.90;31.08;;;12.10;99.90;;;;;;4128090;28;20034;-78
2021/10/26 01:08:57;;;;;;;48.70;32.70;;;12.10;99.90;;;;;;4129589;28;20443;-78
2021/10/26 01:11:00;;;;;;;36.45;26.02;;;12.00;99.90;;;;;;4127285;28;20038;-78
2021/10/26 01:13:03;;;;;;;42.28;31.08;;;12.10;99.90;;;;;;4129141;28;20034;-78
2021/10/26 01:15:06;;;;;;;41.92;31.42;;;12.10;99.90;;;;;;4123708;28;20038;-78
2021/10/26 01:17:09;;;;;;;42.88;30.95;;;12.00;99.90;;;;;;4128089;28;20076;-78
2021/10/26 01:19:10;;;;;;;37.50;28.13;;;12.00;99.90;;;;;;4142542;28;20457;-78
2021/10/26 01:21:10;;;;;;;46.65;32.50;;;12.00;99.90;;;;;;4129038;28;20041;-78
2021/10/26 01:23:12;;;;;;;46.63;31.58;;;12.00;99.90;;;;;;4130392;28;20034;-79
2021/10/26 01:25:13;;;;;;;52.05;33.95;;;12.00;99.90;;;;;;4127918;28;20034;-78
2021/10/26 01:27:15;;;;;;;43.53;30.23;;;12.00;99.90;;;;;;4112468;28;20061;-79
2021/10/26 01:29:16;;;;;;;40.63;31.05;;;12.10;99.90;;;;;;4126027;28;20464;-78
2021/10/26 01:31:16;;;;;;;46.15;33.45;;;12.10;99.90;;;;;;4114344;28;20031;-78
2021/10/26 01:33:17;;;;;;;49.72;32.05;;;12.10;99.90;;;;;;4127475;28;20383;-79
2021/10/26 01:35:18;;;;;;;48.50;32.85;;;12.00;99.90;;;;;;4128363;28;20042;-79
2021/10/26 01:37:19;;;;;;;50.78;31.95;;;12.00;99.90;;;;;;4131358;28;20022;-78
2021/10/26 01:39:19;;;;;;;46.33;34.58;;;12.00;99.90;;;;;;4139737;28;20038;-79
2021/10/26 01:41:20;;;;;;;42.63;31.17;;;12.00;99.90;;;;;;4139026;28;20042;-78
2021/10/26 01:43:21;;;;;;;44.75;32.08;;;12.10;99.90;;;;;;4118029;28;20057;-78
2021/10/26 01:45:22;;;;;;;46.83;34.35;;;12.20;99.90;;;;;;4126206;28;20516;-78
2021/10/26 01:47:23;;;;;;;42.80;33.45;;;12.20;99.90;;;;;;4127961;28;20034;-78
2021/10/26 01:49:24;;;;;;;50.10;34.92;;;12.10;99.90;;;;;;4129006;28;20121;-77
2021/10/26 01:51:24;;;;;;;50.22;34.42;;;12.10;99.90;;;;;;4127515;28;20069;-78
2021/10/26 01:53:26;;;;;;;45.17;33.55;;;12.10;99.90;;;;;;4128388;28;20061;-78
2021/10/26 01:55:28;;;;;;;52.80;34.88;;;12.00;99.90;;;;;;4130047;28;20109;-78
2021/10/26 01:57:28;;;;;;;53.03;35.10;;;12.00;99.90;;;;;;4134827;28;20030;-78
2021/10/26 01:59:30;;;;;;;47.58;34.10;;;12.10;99.90;;;;;;4121481;28;20156;-78
2021/10/26 02:01:31;;;;;;;51.28;33.70;;;12.10;99.90;;;;;;4126884;28;20037;-78
2021/10/26 02:03:31;;;;;;;54.95;36.50;;;12.10;99.90;;;;;;4128671;28;20034;-78
2021/10/26 02:05:32;;;;;;;58.10;37.17;;;12.10;99.90;;;;;;4125698;28;20034;-78
2021/10/26 02:07:33;;;;;;;55.60;34.65;;;12.00;99.90;;;;;;4128598;28;20031;-78
2021/10/26 02:09:34;;;;;;;54.72;36.05;;;12.00;99.90;;;;;;4128541;28;20035;-78
2021/10/26 02:11:36;;;;;;;57.45;35.10;;;12.10;99.90;;;;;;4127852;28;20039;-78
2021/10/26 02:13:37;;;;;;;59.60;38.45;;;12.10;99.90;;;;;;4127948;28;20031;-78
2021/10/26 02:15:37;;;;;;;54.10;35.20;;;12.00;99.90;;;;;;4128299;28;20034;-79
2021/10/26 02:17:38;;;;;;;64.18;40.15;;;12.00;99.90;;;;;;4113733;28;20038;-78
2021/10/26 02:19:39;;;;;;;51.20;35.42;;;12.10;99.90;;;;;;4126242;28;20097;-79
2021/10/26 02:21:39;;;;;;;56.35;35.83;;;12.00;99.90;;;;;;4114166;28;20030;-79
2021/10/26 02:23:40;;;;;;;52.95;32.88;;;12.00;99.90;;;;;;4127330;28;20049;-78
2021/10/26 02:25:41;;;;;;;54.72;36.05;;;12.10;99.90;;;;;;4128283;28;20065;-78
2021/10/26 02:27:41;;;;;;;61.35;38.47;;;12.20;99.90;;;;;;4126988;28;20038;-78
2021/10/26 02:29:42;;;;;;;54.30;36.47;;;12.20;99.90;;;;;;4113356;28;20035;-78
2021/10/26 02:31:43;;;;;;;54.00;37.67;;;12.10;99.90;;;;;;4126612;28;20058;-78
2021/10/26 02:33:43;;;;;;;55.53;38.28;;;12.10;99.90;;;;;;4121145;28;20127;-79
2021/10/26 02:35:45;;;;;;;52.35;35.55;;;12.10;99.90;;;;;;4124284;28;20042;-78
2021/10/26 02:37:46;;;;;;;61.63;38.50;;;12.20;99.90;;;;;;4134905;28;20401;-78
2021/10/26 02:39:47;;;;;;;59.70;39.15;;;12.20;99.90;;;;;;4133177;28;20031;-78
2021/10/26 02:41:47;;;;;;;64.03;40.50;;;12.00;99.90;;;;;;4129931;28;20093;-79
2021/10/26 02:43:48;;;;;;;58.10;41.28;;;11.90;99.90;;;;;;4129006;28;20062;-78
2021/10/26 02:45:49;;;;;;;58.42;39.58;;;11.90;99.90;;;;;;4128243;28;20042;-78
2021/10/26 02:47:50;;;;;;;63.63;40.88;;;11.80;99.90;;;;;;4122439;28;20026;-79
2021/10/26 02:49:50;;;;;;;61.63;40.10;;;11.80;99.90;;;;;;4119963;28;20101;-79
2021/10/26 02:51:51;;;;;;;64.25;41.35;;;11.80;99.90;;;;;;4125657;28;20038;-78
2021/10/26 02:53:52;;;;;;;56.47;39.05;;;11.80;99.90;;;;;;4123923;28;20049;-79
2021/10/26 02:55:53;;;;;;;61.78;39.63;;;11.80;99.90;;;;;;4124742;28;20047;-78
2021/10/26 02:57:53;;;;;;;58.88;40.15;;;11.80;99.90;;;;;;4125522;28;20498;-78
2021/10/26 02:59:54;;;;;;;56.22;39.40;;;11.80;99.90;;;;;;4120149;28;20045;-78
2021/10/26 03:01:55;;;;;;;53.72;37.30;;;11.80;99.90;;;;;;4127285;28;20034;-78
2021/10/26 03:03:56;;;;;;;54.22;38.95;;;11.70;99.90;;;;;;4131884;28;20034;-78
2021/10/26 03:05:56;;;;;;;64.05;40.80;;;11.70;99.90;;;;;;4130330;28;20129;-78
2021/10/26 03:07:57;;;;;;;64.32;41.35;;;11.70;99.90;;;;;;4131002;28;20061;-78
2021/10/26 03:09:57;;;;;;;54.22;37.55;;;11.60;99.90;;;;;;4127831;28;20109;-78
2021/10/26 03:11:58;;;;;;;55.13;38.33;;;11.60;99.90;;;;;;4126103;28;20474;-78
2021/10/26 03:13:59;;;;;;;62.05;42.45;;;11.60;99.90;;;;;;4131108;28;20085;-78
2021/10/26 03:15:59;;;;;;;56.95;39.58;;;11.60;99.90;;;;;;4147129;28;20732;-78
2021/10/26 03:18:00;;;;;;;60.63;40.72;;;11.50;99.90;;;;;;4129100;28;20039;-78
2021/10/26 03:20:02;;;;;;;56.42;36.83;;;11.50;99.90;;;;;;4130198;28;20851;-78
2021/10/26 03:22:03;;;;;;;56.22;38.75;;;11.50;99.90;;;;;;4130717;28;20026;-78
2021/10/26 03:24:05;;;;;;;56.50;39.22;;;11.50;99.90;;;;;;4117885;28;20057;-78
2021/10/26 03:26:06;;;;;;;57.53;39.53;;;11.50;99.90;;;;;;4125614;28;20034;-78
2021/10/26 03:28:09;;;;;;;62.97;40.92;;;11.40;99.90;;;;;;4129248;28;20494;-78
2021/10/26 03:30:11;;;;;;;;;;;11.40;99.90;;;;;;4132545;28;20105;-78
2021/10/26 03:32:11;;;;;;;69.32;43.17;;;11.30;99.90;;;;;;4129827;28;20297;-78
2021/10/26 03:34:12;;;;;;;65.13;38.75;;;11.30;99.90;;;;;;4131690;28;20023;-77
2021/10/26 03:36:14;;;;;;;62.72;41.05;;;11.30;99.90;;;;;;4132049;28;20026;-77
2021/10/26 03:38:14;;;;;;;60.15;42.00;;;11.30;99.90;;;;;;4122328;28;20046;-78
2021/10/26 03:40:15;;;;;;;66.25;41.28;;;11.30;99.90;;;;;;4137468;28;20030;-78
2021/10/26 03:42:16;;;;;;;71.75;43.45;;;11.20;99.90;;;;;;4127941;28;20509;-77
2021/10/26 03:44:17;;;;;;;56.97;36.67;;;11.20;99.90;;;;;;4127865;28;20148;-77
2021/10/26 03:46:17;;;;;;;64.05;39.25;;;11.30;99.90;;;;;;4129994;28;20449;-77
2021/10/26 03:48:20;;;;;;;62.05;40.80;;;11.30;99.90;;;;;;4126910;28;20079;-78
2021/10/26 03:50:21;;;;;;;54.85;38.40;;;11.30;99.90;;;;;;4144453;28;20049;-77
2021/10/26 03:52:21;;;;;;;64.15;40.40;;;11.30;99.90;;;;;;4129658;28;20395;-77
2021/10/26 03:54:22;;;;;;;65.97;41.35;;;11.40;99.90;;;;;;4115893;28;20045;-77
2021/10/26 03:56:23;;;;;;;65.57;42.75;;;11.30;99.90;;;;;;4141872;28;20100;-78
2021/10/26 03:58:24;;;;;;;68.80;42.78;;;11.30;99.90;;;;;;4130417;28;20042;-79
2021/10/26 04:00:24;;;;;;;73.97;42.28;;;11.40;99.90;;;;;;4129626;28;20034;-79
2021/10/26 04:02:28;;;;;;;62.85;40.00;;;11.40;99.90;;;;;;4129790;28;20103;-78
2021/10/26 04:04:28;;;;;;;;;;;11.40;99.90;;;;;;4130648;28;20445;-78
2021/10/26 04:06:30;;;;;;;60.80;36.17;;;11.40;99.90;;;;;;4130464;28;19910;-78
2021/10/26 04:08:45;;;;;;;61.55;36.70;;;11.40;99.90;;;;;;4128648;28;20039;-78
2021/10/26 04:10:55;;;;;;;55.15;36.55;;;11.50;99.90;;;;;;4119535;28;20040;-78
2021/10/26 04:12:56;;;;;;;59.22;37.22;;;11.50;99.90;;;;;;4128472;28;20045;-77
2021/10/26 04:14:57;;;;;;;63.17;35.83;;;11.40;99.90;;;;;;4129965;28;20042;-78
2021/10/26 04:16:58;;;;;;;58.28;36.88;;;11.40;99.90;;;;;;4128438;28;20062;-78
2021/10/26 04:18:59;;;;;;;60.60;38.28;;;11.50;99.90;;;;;;4131051;28;20504;-77
2021/10/26 04:21:00;;;;;;;70.05;39.17;;;11.50;99.90;;;;;;4125982;28;20057;-78
2021/10/26 04:23:00;;;;;;;56.05;36.08;;;11.40;99.90;;;;;;4130504;28;20201;-77
2021/10/26 04:25:01;;;;;;;59.03;37.60;;;11.40;99.90;;;;;;4117481;28;20039;-78
2021/10/26 04:27:02;;;;;;;64.20;36.55;;;11.40;99.90;;;;;;4130128;28;20366;-78
2021/10/26 04:29:02;;;;;;;61.08;35.08;;;11.40;99.90;;;;;;4129057;28;20030;-78
2021/10/26 04:31:05;;;;;;;61.63;35.10;;;11.30;99.90;;;;;;4128304;28;21052;-77
2021/10/26 04:33:06;;;;;;;59.08;38.28;;;11.30;99.90;;;;;;4120257;28;20153;-78
2021/10/26 04:35:08;;;;;;;66.40;40.03;;;11.30;99.90;;;;;;4128136;28;20499;-78
2021/10/26 04:37:09;;;;;;;61.33;35.80;;;11.20;99.90;;;;;;4128787;28;20187;-78
2021/10/26 04:39:10;;;;;;;59.15;34.58;;;11.20;99.90;;;;;;4141173;28;20477;-78
2021/10/26 04:41:12;;;;;;;60.22;35.67;;;11.30;99.90;;;;;;4121824;28;20125;-78
2021/10/26 04:43:13;;;;;;;58.55;34.58;;;11.20;99.90;;;;;;4121458;28;20039;-78
2021/10/26 04:45:14;;;;;;;62.22;35.97;;;11.30;99.90;;;;;;4114880;28;20062;-78
2021/10/26 04:47:16;;;;;;;72.82;38.63;;;11.30;99.90;;;;;;4125226;28;20562;-78
2021/10/26 04:49:16;;;;;;;59.53;36.40;;;11.20;99.90;;;;;;4128419;28;20041;-78
2021/10/26 04:51:17;;;;;;;56.22;36.97;;;11.30;99.90;;;;;;4129914;28;21593;-78
2021/10/26 04:53:18;;;;;;;58.78;36.47;;;11.20;99.90;;;;;;4128403;28;20030;-78
2021/10/26 04:55:20;;;;;;;63.38;37.58;;;11.10;99.90;;;;;;4127123;28;20064;-78
2021/10/26 04:57:20;;;;;;;60.42;37.20;;;11.00;99.90;;;;;;4126368;28;20034;-78
2021/10/26 04:59:21;;;;;;;67.68;38.95;;;11.00;99.90;;;;;;4126856;28;21569;-78
2021/10/26 05:01:21;;;;;;;66.45;37.17;;;11.00;99.90;;;;;;4126916;28;20125;-78
2021/10/26 05:03:22;;;;;;;68.30;39.65;;;11.00;99.90;;;;;;4129084;28;20030;-78
2021/10/26 05:05:23;;;;;;;64.88;38.75;;;10.90;99.90;;;;;;4127768;28;20030;-78
2021/10/26 05:07:24;;;;;;;68.10;39.28;;;10.90;99.90;;;;;;4118513;28;20041;-78
2021/10/26 05:09:25;;;;;;;62.20;35.60;;;10.80;99.90;;;;;;4136747;28;20035;-78
2021/10/26 05:11:25;;;;;;;69.20;39.30;;;10.80;99.90;;;;;;4119015;28;20037;-77
2021/10/26 05:13:29;;;;;;;64.82;39.00;;;10.90;99.90;;;;;;4119592;28;20034;-78
2021/10/26 05:15:30;;;;;;;;;;;10.90;99.90;;;;;;4127976;28;20536;-77
2021/10/26 05:17:31;;;;;;;66.00;37.13;;;10.80;99.90;;;;;;4133265;28;19920;-78
2021/10/26 05:19:33;;;;;;;73.53;39.78;;;10.80;99.90;;;;;;4117083;28;20478;-78
2021/10/26 05:21:34;;;;;;;76.55;41.88;;;10.80;99.90;;;;;;4123030;28;20051;-77
2021/10/26 05:23:36;;;;;;;77.38;41.67;;;10.80;99.90;;;;;;4129058;28;20108;-78
2021/10/26 05:25:37;;;;;;;76.30;42.17;;;10.80;99.90;;;;;;4129119;28;21973;-78
2021/10/26 05:27:39;;;;;;;73.35;42.17;;;10.90;99.90;;;;;;4127224;28;20113;-79
2021/10/26 05:29:41;;;;;;;78.13;41.83;;;10.80;99.90;;;;;;4122085;28;20108;-78
2021/10/26 05:31:41;;;;;;;70.50;36.72;;;10.90;99.90;;;;;;4127810;28;20045;-78
2021/10/26 05:33:44;;;;;;;79.78;42.20;;;10.90;99.90;;;;;;4125989;28;20117;-78
2021/10/26 05:35:45;;;;;;;80.70;40.90;;;10.90;99.90;;;;;;4127282;28;20149;-78
2021/10/26 05:37:46;;;;;;;71.05;41.55;;;11.00;99.90;;;;;;4126149;28;20046;-78
2021/10/26 05:39:47;;;;;;;74.45;42.90;;;10.90;99.90;;;;;;4122875;28;20454;-78
2021/10/26 05:41:48;;;;;;;83.35;43.45;;;10.90;99.90;;;;;;4128121;28;20085;-78
2021/10/26 05:43:48;;;;;;;73.53;42.97;;;11.00;99.90;;;;;;4128188;28;20038;-78
2021/10/26 05:45:49;;;;;;;80.35;44.00;;;10.90;99.90;;;;;;4121288;28;20035;-78
2021/10/26 05:47:50;;;;;;;69.18;41.35;;;10.90;99.90;;;;;;4119151;28;20034;-78
2021/10/26 05:49:51;;;;;;;73.20;42.38;;;10.90;99.90;;;;;;4121500;28;20117;-78
2021/10/26 05:51:51;;;;;;;73.85;44.03;;;11.00;99.90;;;;;;4121945;28;20042;-78
2021/10/26 05:53:52;;;;;;;71.35;42.45;;;11.00;99.90;;;;;;4127966;28;20042;-78
2021/10/26 05:55:53;;;;;;;77.63;43.33;;;11.00;99.90;;;;;;4129727;28;20061;-78
2021/10/26 05:57:53;;;;;;;69.78;42.75;;;11.00;99.90;;;;;;4128709;28;20062;-78
2021/10/26 05:59:54;;;;;;;72.63;45.25;;;11.00;99.90;;;;;;4128401;28;20035;-77
2021/10/26 06:01:55;;;;;;;76.65;46.22;;;10.90;99.90;;;;;;4117230;28;20125;-77
2021/10/26 06:03:56;;;;;;;78.75;44.03;;;10.90;99.90;;;;;;4125388;28;20058;-77
2021/10/26 06:05:56;;;;;;;78.40;46.08;;;10.90;99.90;;;;;;4128415;28;20117;-78
2021/10/26 06:07:57;;;;;;;81.03;46.83;;;10.80;99.90;;;;;;4127921;28;20486;-78
2021/10/26 06:09:58;;;;;;;79.00;47.72;;;10.80;99.90;;;;;;4127335;28;20046;-78
2021/10/26 06:12:00;;;;;;;86.90;48.10;;;10.70;99.90;;;;;;4128253;28;20038;-78
2021/10/26 06:14:03;;;;;;;82.10;43.08;;;10.80;99.90;;;;;;4132432;28;20169;-77
2021/10/26 06:16:05;;;;;;;74.10;42.40;;;10.90;99.90;;;;;;4130881;28;20046;-77
2021/10/26 06:18:06;;;;;;;80.68;43.95;;;10.90;99.90;;;;;;4131755;28;20022;-78
2021/10/26 06:20:10;;;;;;;75.78;45.55;;;10.90;99.90;;;;;;4129331;28;20045;-78
2021/10/26 06:22:10;;;;;;;84.10;46.50;;;10.80;99.90;;;;;;4120999;28;20057;-78
2021/10/26 06:24:11;;;;;;;84.32;47.75;;;10.80;99.90;;;;;;4128053;28;20034;-79
2021/10/26 06:26:12;;;;;;;88.85;47.20;;;10.80;99.90;;;;;;4128642;28;20029;-78
2021/10/26 06:28:13;;;;;;;81.82;46.75;;;10.70;99.90;;;;;;4131390;28;20026;-78
2021/10/26 06:30:13;;;;;;;80.13;47.22;;;10.80;99.90;;;;;;4130963;28;20159;-79
2021/10/26 06:32:14;;;;;;;81.38;44.70;;;10.80;99.90;;;;;;4128320;28;20122;-79
2021/10/26 06:34:15;;;;;;;81.43;47.95;;;10.90;99.90;;;;;;4131605;28;20040;-78
2021/10/26 06:36:15;;;;;;;82.05;46.25;;;10.90;99.90;;;;;;4129888;28;20049;-78
2021/10/26 06:38:16;;;;;;;68.45;44.65;;;10.90;99.90;;;;;;4127401;28;20026;-77
2021/10/26 06:40:18;;;;;;;70.07;41.63;;;10.90;99.90;;;;;;4129309;28;20485;-75
2021/10/26 06:42:18;;;;;;;76.68;46.50;;;10.90;99.90;;;;;;4130677;28;20093;-74
2021/10/26 06:44:20;;;;;;;82.95;50.28;;;10.90;99.90;;;;;;4130300;28;20425;-74
2021/10/26 06:46:20;;;;;;;78.55;48.55;;;10.80;99.90;;;;;;4131644;28;20018;-74
2021/10/26 06:48:22;;;;;;;80.53;45.75;;;10.80;99.90;;;;;;4131734;28;20485;-74
2021/10/26 06:50:23;;;;;;;88.28;48.13;;;10.80;99.90;;;;;;4131161;28;20039;-74
2021/10/26 06:52:23;;;;;;;85.85;49.15;;;10.70;99.90;;;;;;4131482;28;20040;-74
2021/10/26 06:54:24;;;;;;;77.40;47.85;;;10.70;99.90;;;;;;4129387;28;20584;-75
2021/10/26 06:56:27;;;;;;;79.60;47.67;;;10.80;99.90;;;;;;4130827;28;20015;-75
2021/10/26 06:58:27;;;;;;;71.60;43.03;;;10.80;99.90;;;;;;4125953;28;20118;-75
2021/10/26 07:00:28;;;;;;;67.57;42.13;;;10.80;99.90;;;;;;4131543;28;20553;-74
2021/10/26 07:02:28;;;;;;;78.22;47.72;;;10.90;99.90;;;;;;4131799;28;20081;-74
2021/10/26 07:04:30;;;;;;;76.00;46.63;;;10.90;99.90;;;;;;4132210;28;20462;-74
2021/10/26 07:06:31;;;;;;;80.53;46.20;;;10.90;99.90;;;;;;4130562;28;20036;-74
2021/10/26 07:08:33;;;;;;;60.50;37.03;;;10.90;99.90;;;;;;4131443;28;20462;-75
2021/10/26 07:10:33;;;;;;;58.60;40.47;;;11.10;99.90;;;;;;4128961;28;20544;-75
2021/10/26 07:12:35;;;;;;;70.43;42.75;;;11.20;99.90;;;;;;4131906;28;20054;-75
2021/10/26 07:14:35;;;;;;;69.15;43.05;;;11.10;99.90;;;;;;4130690;28;20034;-75
2021/10/26 07:16:36;;;;;;;63.58;42.38;;;11.10;99.90;;;;;;4131699;28;20033;-74
2021/10/26 07:18:37;;;;;;;69.75;42.47;;;11.10;99.90;;;;;;4130801;28;20700;-75
2021/10/26 07:20:37;;;;;;;62.78;42.22;;;11.00;99.90;;;;;;4131579;28;20046;-78
2021/10/26 07:22:39;;;;;;;66.22;41.55;;;11.00;99.90;;;;;;4131117;28;20037;-78
2021/10/26 07:24:40;;;;;;;66.57;41.00;;;11.00;99.90;;;;;;4129996;28;20046;-78
2021/10/26 07:26:41;;;;;;;65.32;40.08;;;11.00;99.90;;;;;;4127978;28;20043;-78
2021/10/26 07:28:41;;;;;;;75.10;41.50;;;11.10;99.90;;;;;;4127787;28;20089;-78
2021/10/26 07:30:44;;;;;;;70.82;42.67;;;11.10;99.90;;;;;;4130413;28;20097;-78
2021/10/26 07:32:45;;;;;;;60.22;34.53;;;11.10;99.90;;;;;;4127729;28;20474;-79
2021/10/26 07:34:46;;;;;;;56.10;38.25;;;11.10;99.90;;;;;;4128070;28;20046;-78
2021/10/26 07:36:48;;;;;;;69.43;41.47;;;11.20;99.90;;;;;;4131049;28;20040;-78
2021/10/26 07:38:56;;;;;;;67.07;39.40;;;11.00;99.90;;;;;;4122622;28;20568;-78
2021/10/26 07:40:58;;;;;;;63.78;38.10;;;11.00;99.90;;;;;;4130616;28;20046;-79
2021/10/26 07:42:59;;;;;;;62.85;39.22;;;10.90;99.90;;;;;;4130830;28;20085;-79
2021/10/26 07:44:59;;;;;;;62.58;38.25;;;11.00;99.90;;;;;;4128958;28;20034;-79
2021/10/26 07:47:02;;;;;;;68.30;40.08;;;11.10;99.90;;;;;;4130731;28;20042;-78
2021/10/26 07:49:06;;;;;;;67.97;40.92;;;11.20;99.90;;;;;;4129342;28;20027;-78
2021/10/26 07:51:07;;;;;;;65.18;39.42;;;11.20;99.90;;;;;;4129182;28;20073;-78
2021/10/26 07:53:07;;;;;;;65.68;43.58;;;11.10;99.90;;;;;;4128632;28;20054;-78
2021/10/26 07:55:09;;;;;;;69.32;40.72;;;11.00;99.90;;;;;;4130861;28;20062;-78
2021/10/26 07:57:09;;;;;;;59.58;37.45;;;11.00;99.90;;;;;;4129279;28;20494;-78
2021/10/26 07:59:10;;;;;;;71.68;42.75;;;11.00;99.90;;;;;;4129590;28;20022;-78
2021/10/26 08:01:11;;;;;;;66.72;42.08;;;11.10;99.90;;;;;;4128826;28;20038;-78
2021/10/26 08:03:11;;;;;;;65.25;41.50;;;11.20;99.90;;;;;;4130965;28;20050;-78
2021/10/26 08:05:12;;;;;;;66.05;42.42;;;11.20;99.90;;;;;;4129623;28;20064;-79
2021/10/26 08:07:16;;;;;;;69.15;42.83;;;11.30;99.90;;;;;;4129949;28;20105;-78
2021/10/26 08:09:19;;;;;;;54.80;38.13;;;11.40;99.90;;;;;;4127978;28;20035;-78
2021/10/26 08:11:20;;;;;;;61.50;37.58;;;11.50;99.90;;;;;;4130437;28;20496;-78
2021/10/26 08:13:20;;;;;;;51.75;37.53;;;11.70;99.90;;;;;;4131399;28;20041;-77
2021/10/26 08:15:21;;;;;;;55.80;37.15;;;11.70;99.90;;;;;;4129432;28;20043;-77
2021/10/26 08:17:22;;;;;;;55.25;36.95;;;11.80;99.90;;;;;;4127137;28;20077;-78
2021/10/26 08:19:23;;;;;;;60.08;36.33;;;11.80;99.90;;;;;;4131081;28;20385;-78
2021/10/26 08:21:24;;;;;;;50.97;34.67;;;11.90;99.90;;;;;;4128832;28;20058;-79
2021/10/26 08:23:25;;;;;;;44.97;32.50;;;12.00;99.90;;;;;;4127167;28;20034;-78
2021/10/26 08:25:29;;;;;;;45.95;29.08;;;12.10;99.90;;;;;;4127895;28;20042;-78
2021/10/26 08:27:30;;;;;;;41.00;28.65;;;12.20;99.90;;;;;;4130786;28;20033;-79
2021/10/26 08:29:46;;;;;;;43.13;28.88;;;12.30;99.90;;;;;;4128802;28;20041;-78
2021/10/26 08:32:05;;;;;;;51.05;31.23;;;12.30;99.90;;;;;;4128018;28;20038;-79
2021/10/26 08:34:11;;;;;;;47.25;29.27;;;12.30;99.90;;;;;;4122061;28;20023;-78
2021/10/26 08:36:12;;;;;;;39.90;26.13;;;12.40;99.90;;;;;;4126726;28;20046;-78
2021/10/26 08:38:13;;;;;;;35.60;26.38;;;12.40;99.90;;;;;;4130017;28;20109;-78
2021/10/26 08:40:17;;;;;;;35.20;24.23;;;12.60;99.90;;;;;;4129439;28;20034;-78
2021/10/26 08:42:18;;;;;;;;;;;12.80;99.90;;;;;;4130857;28;20064;-78
2021/10/26 08:44:18;;;;;;;37.08;24.08;;;12.90;99.90;;;;;;4129599;28;19913;-77
2021/10/26 08:46:21;;;;;;;33.70;22.27;;;13.10;99.90;;;;;;4129005;28;20029;-77
2021/10/26 08:48:24;;;;;;;38.03;26.03;;;13.20;99.90;;;;;;4128300;28;20112;-78
2021/10/26 08:50:27;;;;;;;34.25;23.05;;;13.30;99.90;;;;;;4130055;28;20077;-78
2021/10/26 08:52:28;;;;;;;42.42;26.08;;;13.30;99.90;;;;;;4128175;28;20034;-78
2021/10/26 08:54:29;;;;;;;37.75;27.75;;;13.40;99.90;;;;;;4128015;28;20474;-78
2021/10/26 08:56:29;;;;;;;42.42;30.40;;;13.30;99.90;;;;;;4138049;28;20390;-78
2021/10/26 08:58:32;;;;;;;46.15;29.35;;;13.30;99.90;;;;;;4138837;28;20033;-78
2021/10/26 09:00:33;;;;;;;36.50;24.75;;;13.20;99.90;;;;;;4128462;28;20037;-77
2021/10/26 09:02:41;;;;;;;42.03;27.60;;;13.30;99.90;;;;;;4128407;28;20618;-77
2021/10/26 09:04:41;;;;;;;47.58;28.95;;;13.20;99.90;;;;;;4128681;28;20041;-78
2021/10/26 09:06:45;;;;;;;52.35;29.90;;;13.10;99.90;;;;;;4129274;28;20038;-78
2021/10/26 09:08:47;;;;;;;45.15;30.00;;;13.20;99.90;;;;;;4123569;28;20208;-78
2021/10/26 09:10:49;;;;;;;47.13;32.40;;;13.30;99.90;;;;;;4126646;28;20027;-77
2021/10/26 09:18:12;;;;;;;48.67;32.67;;;13.70;99.90;;;;;;4094120;28;20252;-77
2021/10/26 09:20:21;;;;;;;52.58;33.78;;;13.80;99.90;;;;;;4096996;28;20055;-77
2021/10/26 09:22:24;;;;;;;51.50;31.23;;;13.80;99.90;;;;;;4126957;28;20041;-78
2021/10/26 09:24:26;;;;;;;42.80;29.60;;;14.00;99.90;;;;;;4127886;28;20117;-77
2021/10/26 09:26:43;;;;;;;49.30;30.25;;;14.10;99.90;;;;;;4127937;28;20037;-78
2021/10/26 09:28:56;;;;;;;55.83;32.15;;;14.10;99.90;;;;;;4126495;28;20043;-77
2021/10/26 09:31:05;;;;;;;43.63;27.88;;;14.10;99.90;;;;;;4126391;28;20116;-77
2021/10/26 09:33:09;;;;;;;43.28;28.15;;;14.20;99.90;;;;;;4123084;28;20070;-78
2021/10/26 09:35:19;;;;;;;44.30;26.98;;;14.20;99.90;;;;;;4126559;28;20042;-77
2021/10/26 09:37:21;;;;;;;41.47;26.08;;;14.20;99.90;;;;;;4129942;28;20030;-78
2021/10/26 09:39:24;;;;;;;47.63;27.40;;;14.10;99.90;;;;;;4128553;28;20030;-77
2021/10/26 09:41:25;;;;;;;45.08;28.85;;;14.00;99.90;;;;;;4129916;28;20031;-78
2021/10/26 09:43:27;;;;;;;37.38;26.40;;;13.90;99.90;;;;;;4129107;28;20030;-78
2021/10/26 09:45:30;;;;;;;43.70;28.88;;;14.00;99.90;;;;;;4127228;28;20443;-77
2021/10/26 09:47:37;;;;;;;42.72;25.55;;;14.10;99.90;;;;;;4131090;28;20029;-77
2021/10/26 09:49:40;;;;;;;41.22;25.73;;;14.00;99.90;;;;;;4131556;28;20034;-77
2021/10/26 09:51:40;;;;;;;45.90;29.65;;;14.10;99.90;;;;;;4131333;28;20037;-78
2021/10/26 09:53:53;;;;;;;46.00;26.73;;;14.00;99.90;;;;;;4132021;28;20031;-78
2021/10/26 09:55:54;;;;;;;42.33;28.02;;;13.90;99.90;;;;;;4142561;28;20125;-77
2021/10/26 09:58:02;;;;;;;40.45;27.65;;;13.90;99.90;;;;;;4129849;28;20521;-77
2021/10/26 10:00:06;;;;;;;46.78;26.40;;;13.80;99.90;;;;;;4133009;28;20038;-77
2021/10/26 10:02:07;;;;;;;48.92;28.63;;;13.90;99.90;;;;;;4131112;28;20494;-78
2021/10/26 10:04:09;;;;;;;42.75;27.65;;;14.00;99.90;;;;;;4133168;28;20046;-77
2021/10/26 10:06:10;;;;;;;35.95;25.10;;;14.10;99.90;;;;;;4131374;28;20033;-79
2021/10/26 10:08:24;;;;;;;36.15;24.02;;;14.20;99.90;;;;;;4132719;28;20026;-77
2021/10/26 10:10:38;;;;;;;35.60;23.63;;;14.30;99.90;;;;;;4130151;28;20034;-78
2021/10/26 10:12:40;;;;;;;36.22;22.27;;;14.30;99.90;;;;;;4128286;28;20162;-78
2021/10/26 10:14:41;;;;;;;33.20;24.10;;;14.30;99.90;;;;;;4132366;28;20065;-78
2021/10/26 10:16:42;;;;;;;31.10;22.25;;;14.30;99.90;;;;;;4130979;28;20493;-78
2021/10/26 10:18:44;;;;;;;29.40;21.50;;;14.40;99.90;;;;;;4117019;28;20030;-77
2021/10/26 10:20:52;;;;;;;31.58;21.38;;;14.40;99.90;;;;;;4130907;28;20038;-77
2021/10/26 10:22:56;;;;;;;35.65;23.65;;;14.30;99.90;;;;;;4130860;28;20027;-78